Time;durP1;ratioP1;P1;durP2;ratioP2;P2;SDS_P1;SDS_P2;PMS_P1;PMS_P2;Temp;Humidity;BMP_temperature;BMP_pressure;BME280_temperature;BME280_humidity;BME280_pressure;Samples;Min_cycle;Max_cycle;Signal;HPM_P1;HPM_P2
2020/12/28 00:01:45;;;;;;;43.85;18.27;;;;;;;4.59;50.57;101514.02;1832307;78;21175;-78
2020/12/28 00:04:13;;;;;;;39.40;18.17;;;;;;;4.60;50.57;101513.55;1832433;78;21153;-77
2020/12/28 00:06:47;;;;;;;45.20;20.62;;;;;;;4.54;50.61;101520.94;1832457;78;21151;-79
2020/12/28 00:09:16;;;;;;;36.58;20.90;;;;;;;4.54;50.67;101534.65;1832722;78;21128;-80
2020/12/28 00:11:45;;;;;;;41.42;19.85;;;;;;;4.49;50.59;101516.36;1832536;78;21186;-80
2020/12/28 00:14:12;;;;;;;43.38;21.70;;;;;;;4.51;50.63;101512.30;1832748;78;21120;-78
2020/12/28 00:16:40;;;;;;;42.80;22.90;;;;;;;4.51;50.54;101525.09;1832504;78;21609;-80
2020/12/28 00:19:08;;;;;;;42.85;23.77;;;;;;;4.49;50.56;101520.34;1832534;78;21163;-77
2020/12/28 00:21:36;;;;;;;37.50;20.70;;;;;;;4.51;50.52;101515.81;1832467;78;21556;-77
2020/12/28 00:24:04;;;;;;;27.52;17.62;;;;;;;4.49;50.45;101514.18;1832586;78;21606;-77
2020/12/28 00:26:42;;;;;;;26.48;18.07;;;;;;;4.49;50.51;101512.38;1832621;78;21178;-79
2020/12/28 00:29:13;;;;;;;32.08;19.90;;;;;;;4.52;50.46;101509.55;1832889;78;21639;-80
2020/12/28 00:31:44;;;;;;;26.37;17.95;;;;;;;4.62;50.33;101506.33;1832415;78;21183;-81
2020/12/28 00:34:12;;;;;;;28.98;16.27;;;;;;;4.65;50.23;101503.50;1832697;78;21159;-82
2020/12/28 00:36:40;;;;;;;30.32;17.40;;;;;;;4.60;50.23;101501.13;1832588;78;21199;-77
2020/12/28 00:39:08;;;;;;;24.67;14.20;;;;;;;4.56;50.27;101491.17;1832530;78;21147;-77
2020/12/28 00:41:36;;;;;;;24.00;14.15;;;;;;;4.61;50.29;101500.17;1832008;78;21167;-80
2020/12/28 00:44:04;;;;;;;19.55;10.80;;;;;;;4.67;50.19;101496.28;1832414;78;21172;-76
2020/12/28 00:46:31;;;;;;;21.17;12.95;;;;;;;4.71;50.12;101491.17;1831652;78;21670;-79
2020/12/28 00:49:00;;;;;;;20.70;12.33;;;;;;;4.72;50.08;101482.25;1832185;78;21781;-77
2020/12/28 00:51:27;;;;;;;17.48;11.05;;;;;;;4.70;50.07;101477.53;1832506;78;20988;-79
2020/12/28 00:53:55;;;;;;;25.52;12.80;;;;;;;4.72;49.97;101486.23;1832687;78;21598;-77
2020/12/28 00:56:23;;;;;;;26.30;12.75;;;;;;;4.67;49.98;101467.94;1832789;78;21570;-78
2020/12/28 00:58:52;;;;;;;21.77;11.55;;;;;;;4.70;50.03;101472.22;1832400;78;21182;-77
2020/12/28 01:01:20;;;;;;;16.62;10.55;;;;;;;4.73;50.03;101465.41;1832443;78;22616;-79
2020/12/28 01:03:48;;;;;;;19.20;10.63;;;;;;;4.73;50.03;101458.77;1832514;78;21789;-77
2020/12/28 01:06:27;;;;;;;18.52;11.10;;;;;;;4.74;49.96;101467.10;1831437;78;21119;-79
2020/12/28 01:09:14;;;;;;;15.58;9.60;;;;;;;4.75;49.98;101458.19;1832612;78;21425;-81
2020/12/28 01:11:42;;;;;;;15.53;9.28;;;;;;;4.77;49.96;101460.28;1832511;78;21162;-77
2020/12/28 01:14:11;;;;;;;14.78;8.10;;;;;;;4.74;50.07;101452.03;1832434;78;22221;-79
2020/12/28 01:16:39;;;;;;;23.50;12.65;;;;;;;4.72;50.11;101446.42;1832022;78;21674;-78
2020/12/28 01:19:07;;;;;;;27.73;13.35;;;;;;;4.65;50.22;101448.62;1800246;78;21656;-78
2020/12/28 01:21:36;;;;;;;26.30;13.68;;;;;;;4.63;50.39;101440.36;1832573;78;21376;-77
2020/12/28 01:24:04;;;;;;;38.60;17.92;;;;;;;4.61;50.44;101436.97;1832060;78;21571;-80
2020/12/28 01:26:32;;;;;;;36.53;18.50;;;;;;;4.56;50.54;101439.44;1800316;78;21363;-78
2020/12/28 01:29:01;;;;;;;37.05;19.55;;;;;;;4.49;50.65;101438.09;1832598;78;21119;-79
2020/12/28 01:31:30;;;;;;;38.05;21.40;;;;;;;4.46;50.82;101440.95;1832276;78;21450;-78
2020/12/28 01:34:01;;;;;;;78.12;43.13;;;;;;;4.42;50.91;101438.11;1832764;78;21736;-78
2020/12/28 01:36:31;;;;;;;129.53;67.35;;;;;;;4.42;50.93;101439.44;1832161;78;21099;-77
2020/12/28 01:39:01;;;;;;;136.97;68.30;;;;;;;4.40;50.87;101425.40;1832504;78;21795;-81
2020/12/28 01:41:30;;;;;;;107.63;54.88;;;;;;;4.36;50.99;101421.26;1832403;78;21148;-79
2020/12/28 01:43:57;;;;;;;75.87;37.95;;;;;;;4.36;50.97;101419.94;1832413;78;21143;-81
2020/12/28 01:46:25;;;;;;;38.90;21.85;;;;;;;4.40;50.92;101412.14;1832167;78;21179;-80
2020/12/28 01:48:55;;;;;;;28.77;15.35;;;;;;;4.42;50.83;101403.63;1832254;78;21158;-81
2020/12/28 01:51:24;;;;;;;25.23;13.45;;;;;;;4.45;50.65;101401.23;1832138;78;22221;-79
2020/12/28 01:53:54;;;;;;;22.50;13.40;;;;;;;4.48;50.64;101393.95;1832029;78;21155;-78
2020/12/28 01:56:23;;;;;;;24.00;14.03;;;;;;;4.51;50.54;101392.44;1827249;78;21147;-79
2020/12/28 01:58:52;;;;;;;28.75;15.00;;;;;;;4.52;50.46;101391.96;1832616;78;21162;-78
2020/12/28 02:01:22;;;;;;;30.57;15.93;;;;;;;4.52;50.42;101387.50;1831693;78;21151;-79
2020/12/28 02:03:50;;;;;;;30.02;14.68;;;;;;;4.53;50.38;101379.91;1831983;78;21748;-81
2020/12/28 02:06:20;;;;;;;26.20;13.38;;;;;;;4.53;50.36;101378.59;1831296;78;21598;-80
2020/12/28 02:08:48;;;;;;;26.05;14.55;;;;;;;4.52;50.34;101365.43;1832168;78;21163;-80
2020/12/28 02:11:17;;;;;;;23.62;13.78;;;;;;;4.55;50.24;101359.95;1831957;78;21219;-78
2020/12/28 02:13:46;;;;;;;20.05;11.48;;;;;;;4.58;50.18;101351.29;1831906;78;21157;-78
2020/12/28 02:16:33;;;;;;;22.73;13.15;;;;;;;4.65;50.02;101345.13;1830966;78;21799;-77
2020/12/28 02:19:03;;;;;;;20.45;11.03;;;;;;;4.71;49.95;101338.09;1831095;78;21170;-78
2020/12/28 02:21:37;;;;;;;17.87;10.53;;;;;;;4.80;49.81;101347.27;1832542;78;21373;-79
2020/12/28 02:24:05;;;;;;;19.15;11.05;;;;;;;4.87;49.68;101337.97;1832770;78;21144;-76
2020/12/28 02:26:34;;;;;;;19.75;11.05;;;;;;;4.89;49.54;101333.39;1832255;78;21112;-76
2020/12/28 02:29:02;;;;;;;22.45;12.50;;;;;;;4.88;49.46;101327.72;1832258;78;21425;-78
2020/12/28 02:31:31;;;;;;;17.73;10.35;;;;;;;4.88;49.47;101330.38;1832334;78;21104;-78
2020/12/28 02:34:04;;;;;;;21.68;12.10;;;;;;;4.93;49.34;101320.78;1776277;78;21155;-80
2020/12/28 02:36:33;;;;;;;22.32;12.15;;;;;;;4.95;49.20;101330.36;1831643;78;21145;-77
2020/12/28 02:39:02;;;;;;;22.90;13.25;;;;;;;4.94;49.09;101334.42;1832217;78;21182;-77
2020/12/28 02:41:30;;;;;;;16.17;9.23;;;;;;;4.87;49.09;101331.33;1832225;78;21364;-82
2020/12/28 02:44:16;;;;;;;18.27;10.43;;;;;;;4.86;49.09;101329.63;1832066;78;21162;-79
2020/12/28 02:47:02;;;;;;;16.62;9.88;;;;;;;4.84;49.02;101327.54;1832409;78;21191;-79
2020/12/28 02:49:48;;;;;;;20.75;11.15;;;;;;;4.77;49.03;101335.06;1832312;78;21154;-78
2020/12/28 02:52:35;;;;;;;21.57;12.85;;;;;;;4.74;49.13;101334.41;1832527;78;21131;-77
2020/12/28 02:55:21;;;;;;;22.80;12.13;;;;;;;4.61;49.28;101350.73;1832754;78;21777;-79
2020/12/28 02:58:07;;;;;;;21.52;12.30;;;;;;;4.46;49.61;101344.61;1832304;78;21139;-81
2020/12/28 03:00:53;;;;;;;15.23;9.10;;;;;;;4.39;49.85;101336.17;1831924;78;21162;-78
2020/12/28 03:03:38;;;;;;;19.55;11.18;;;;;;;4.37;50.01;101332.77;1767314;81;21194;-78
2020/12/28 03:06:24;;;;;;;22.45;10.68;;;;;;;4.36;50.13;101333.73;1819691;78;21162;-77
2020/12/28 03:09:10;;;;;;;23.50;11.88;;;;;;;4.38;50.25;101330.49;1832726;78;21360;-77
2020/12/28 03:11:56;;;;;;;23.80;12.73;;;;;;;4.35;50.28;101328.02;1832387;78;21590;-78
2020/12/28 03:14:42;;;;;;;19.90;12.03;;;;;;;4.32;50.43;101322.94;1826680;78;21520;-77
2020/12/28 03:17:28;;;;;;;21.27;11.60;;;;;;;4.40;50.41;101330.38;1827769;78;21169;-77
2020/12/28 03:20:14;;;;;;;29.35;16.12;;;;;;;4.44;50.38;101328.77;1827993;78;21636;-79
2020/12/28 03:23:00;;;;;;;23.65;15.18;;;;;;;4.42;50.27;101328.03;1827656;78;21698;-80
2020/12/28 03:25:45;;;;;;;36.40;19.70;;;;;;;4.36;50.33;101312.52;1828074;78;21053;-78
2020/12/28 03:28:32;;;;;;;24.40;15.28;;;;;;;4.41;50.36;101314.39;1826696;78;21604;-79
2020/12/28 03:31:18;;;;;;;20.85;12.37;;;;;;;4.52;50.44;101326.48;1826248;78;21168;-80
2020/12/28 03:34:05;;;;;;;21.93;13.88;;;;;;;4.61;50.15;101313.59;1826395;78;21188;-78
2020/12/28 03:36:51;;;;;;;24.32;13.62;;;;;;;4.68;50.02;101308.23;1826419;78;21363;-77
2020/12/28 03:39:38;;;;;;;24.45;13.40;;;;;;;4.71;49.95;101302.75;1827516;78;21181;-78
2020/12/28 03:42:27;;;;;;;19.87;10.70;;;;;;;4.73;49.93;101306.17;1827850;78;21136;-79
2020/12/28 03:45:14;;;;;;;;;;;;;;;4.70;49.99;101297.91;1830795;78;21603;-81
2020/12/28 03:47:43;;;;;;;17.80;10.50;;;;;;;4.69;49.99;101300.20;1789715;78;20509;-79
2020/12/28 03:50:29;;;;;;;17.30;9.90;;;;;;;4.72;50.07;101295.15;1827733;78;21201;-77
2020/12/28 03:53:15;;;;;;;26.50;13.98;;;;;;;4.74;50.03;101305.20;1859908;77;21763;-78
2020/12/28 03:56:02;;;;;;;27.27;15.53;;;;;;;4.70;50.05;101296.59;1818619;77;21599;-80
2020/12/28 03:58:48;;;;;;;27.40;14.60;;;;;;;4.69;50.09;101284.75;1807001;77;21726;-80
2020/12/28 04:01:34;;;;;;;30.57;14.13;;;;;;;4.73;50.18;101283.12;1841516;77;21165;-78
2020/12/28 04:04:21;;;;;;;21.12;12.35;;;;;;;4.78;49.98;101286.81;1811687;79;21219;-77
2020/12/28 04:07:07;;;;;;;25.92;14.30;;;;;;;4.77;49.99;101275.34;1811030;79;21186;-78
2020/12/28 04:09:53;;;;;;;15.85;9.70;;;;;;;4.86;49.87;101273.89;1811972;79;21158;-79
2020/12/28 04:12:26;;;;;;;21.50;11.85;;;;;;;4.90;49.80;101280.67;1809347;79;21058;-79
2020/12/28 04:14:54;;;;;;;16.57;10.58;;;;;;;4.88;49.71;101277.28;1812288;79;21138;-81
2020/12/28 04:17:23;;;;;;;18.57;12.23;;;;;;;4.89;49.69;101284.28;1811101;79;21208;-80
2020/12/28 04:19:50;;;;;;;20.65;11.48;;;;;;;4.82;49.72;101282.53;1811151;79;21193;-81
2020/12/28 04:22:18;;;;;;;20.35;11.53;;;;;;;4.76;49.81;101282.06;1809725;79;21190;-77
2020/12/28 04:24:45;;;;;;;21.17;11.53;;;;;;;4.72;49.76;101285.38;1810703;79;21197;-78
2020/12/28 04:27:13;;;;;;;13.95;8.58;;;;;;;4.73;49.81;101282.28;1809839;79;21616;-77
2020/12/28 04:29:41;;;;;;;18.67;11.33;;;;;;;4.78;49.87;101285.00;1811100;79;21352;-78
2020/12/28 04:32:09;;;;;;;19.40;11.40;;;;;;;4.84;49.75;101283.73;1810032;79;21975;-77
2020/12/28 04:34:38;;;;;;;22.73;12.65;;;;;;;4.86;49.73;101285.84;1812752;79;21163;-78
2020/12/28 04:37:05;;;;;;;16.07;10.18;;;;;;;4.84;49.64;101282.41;1795043;78;21342;-76
2020/12/28 04:39:33;;;;;;;17.85;10.32;;;;;;;4.82;49.56;101283.00;1791657;77;21139;-77
2020/12/28 04:42:01;;;;;;;19.07;10.72;;;;;;;4.79;49.54;101286.70;1802064;78;21358;-77
2020/12/28 04:44:30;;;;;;;15.90;9.60;;;;;;;4.82;49.54;101274.56;1779660;78;21277;-78
2020/12/28 04:46:59;;;;;;;11.88;7.55;;;;;;;4.88;49.46;101282.59;1810348;78;21151;-80
2020/12/28 04:49:26;;;;;;;16.67;10.35;;;;;;;4.95;49.33;101283.90;1833551;77;21208;-81
2020/12/28 04:51:55;;;;;;;14.25;9.18;;;;;;;4.92;49.31;101288.55;1806383;78;21687;-79
2020/12/28 04:54:23;;;;;;;14.25;8.73;;;;;;;4.95;49.34;101274.61;1763927;78;21356;-78
2020/12/28 04:56:52;;;;;;;14.40;8.65;;;;;;;5.01;49.36;101274.19;1822397;78;21230;-78
2020/12/28 04:59:20;;;;;;;15.32;9.43;;;;;;;5.04;49.32;101266.03;1823155;77;21168;-80
2020/12/28 05:01:54;;;;;;;15.32;9.73;;;;;;;5.09;49.48;101271.88;1848825;77;21172;-80
2020/12/28 05:04:24;;;;;;;18.60;12.05;;;;;;;5.09;49.64;101279.00;1798977;77;21309;-80
2020/12/28 05:07:06;;;;;;;21.07;13.38;;;;;;;5.12;50.33;101267.30;1820895;78;21617;-80
2020/12/28 05:09:35;;;;;;;26.25;14.75;;;;;;;5.12;50.75;101275.27;1821629;78;21168;-81
2020/12/28 05:12:04;;;;;;;22.98;13.75;;;;;;;5.04;51.24;101272.66;1819908;78;21180;-81
2020/12/28 05:14:32;;;;;;;29.25;14.98;;;;;;;4.96;51.47;101274.13;1819719;78;21184;-80
2020/12/28 05:17:05;;;;;;;22.65;12.85;;;;;;;4.85;51.74;101246.95;1821155;78;21169;-82
2020/12/28 05:19:36;;;;;;;31.40;15.60;;;;;;;4.77;52.03;101255.92;1821683;78;21361;-80
2020/12/28 05:22:04;;;;;;;28.15;15.90;;;;;;;4.72;52.32;101246.90;1825951;77;21200;-79
2020/12/28 05:24:32;;;;;;;26.15;14.28;;;;;;;4.68;52.49;101253.84;1848150;77;21168;-79
2020/12/28 05:27:00;;;;;;;29.42;16.80;;;;;;;4.62;52.73;101234.35;1822604;77;21563;-79
2020/12/28 05:29:28;;;;;;;25.15;15.40;;;;;;;4.62;52.90;101233.87;1845253;77;21164;-78
2020/12/28 05:31:56;;;;;;;29.02;16.35;;;;;;;4.65;52.90;101237.66;1827949;77;21342;-77
2020/12/28 05:34:27;;;;;;;25.30;15.40;;;;;;;4.60;52.80;101241.09;1846144;77;21592;-79
2020/12/28 05:36:58;;;;;;;26.85;16.35;;;;;;;4.61;52.91;101244.59;1841061;77;21463;-78
2020/12/28 05:39:27;;;;;;;27.50;15.85;;;;;;;4.61;53.00;101257.87;1786711;78;21211;-78
2020/12/28 05:42:12;;;;;;;24.35;14.68;;;;;;;4.57;53.17;101242.61;1826090;78;21172;-84
2020/12/28 05:44:43;;;;;;;22.73;13.93;;;;;;;4.56;53.35;101242.25;1824907;77;21435;-79
2020/12/28 05:47:16;;;;;;;24.95;13.10;;;;;;;4.53;53.29;101250.39;1826393;78;21133;-79
2020/12/28 05:49:45;;;;;;;24.95;14.65;;;;;;;4.54;53.35;101238.38;1831553;77;21581;-78
2020/12/28 05:52:16;;;;;;;27.07;14.63;;;;;;;4.58;53.24;101242.50;1813259;78;21564;-81
2020/12/28 05:54:44;;;;;;;23.52;13.62;;;;;;;4.65;53.01;101242.12;1809100;78;21077;-78
2020/12/28 05:57:12;;;;;;;28.52;15.75;;;;;;;4.65;52.88;101220.41;1806299;78;21351;-80
2020/12/28 05:59:41;;;;;;;27.95;15.18;;;;;;;4.62;52.65;101217.11;1823059;78;21100;-79
2020/12/28 06:02:10;;;;;;;27.15;14.78;;;;;;;4.57;52.54;101224.89;1814310;78;21172;-80
2020/12/28 06:04:38;;;;;;;28.55;15.78;;;;;;;4.52;52.67;101212.41;1746600;78;21175;-81
2020/12/28 06:07:06;;;;;;;26.70;14.00;;;;;;;4.50;52.77;101207.69;1840805;76;21177;-79
2020/12/28 06:09:33;;;;;;;27.70;15.78;;;;;;;4.48;52.82;101206.92;1803906;77;21701;-77
2020/12/28 06:12:06;;;;;;;21.75;12.60;;;;;;;4.44;52.94;101229.30;1811689;77;21564;-77
2020/12/28 06:14:39;;;;;;;26.50;14.35;;;;;;;4.41;53.02;101224.69;1810426;77;21174;-79
2020/12/28 06:17:09;;;;;;;25.32;14.23;;;;;;;4.36;53.08;101205.09;1817894;77;21549;-79
2020/12/28 06:19:38;;;;;;;23.32;14.03;;;;;;;4.35;53.09;101208.67;1817167;77;21108;-76
2020/12/28 06:22:24;;;;;;;22.87;13.95;;;;;;;4.37;53.19;101201.48;1807238;78;21346;-77
2020/12/28 06:25:12;;;;;;;22.62;14.55;;;;;;;4.42;53.15;101218.42;1819734;77;21453;-80
2020/12/28 06:27:58;;;;;;;24.27;13.80;;;;;;;4.41;52.90;101236.14;1815842;77;21454;-78
2020/12/28 06:30:32;;;;;;;21.42;13.50;;;;;;;4.31;52.79;101232.36;1785521;78;21148;-79
2020/12/28 06:33:09;;;;;;;25.77;15.13;;;;;;;4.19;52.91;101228.72;1813598;77;21097;-81
2020/12/28 06:35:37;;;;;;;25.70;14.40;;;;;;;4.21;52.99;101208.24;1816285;77;21337;-79
2020/12/28 06:38:08;;;;;;;25.43;15.50;;;;;;;4.27;52.87;101220.25;1806589;77;37685;-77
2020/12/28 06:40:40;;;;;;;24.63;14.33;;;;;;;4.28;52.86;101195.45;1813260;77;21119;-79
2020/12/28 06:43:17;;;;;;;24.70;12.95;;;;;;;4.28;52.81;101202.93;1822478;77;21153;-79
2020/12/28 06:45:48;;;;;;;29.67;15.15;;;;;;;4.32;52.82;101230.11;1810287;77;21092;-80
2020/12/28 06:48:18;;;;;;;23.67;13.58;;;;;;;4.34;52.92;101233.50;1817324;77;21356;-78
2020/12/28 06:50:54;;;;;;;24.02;14.65;;;;;;;4.41;52.91;101220.23;1821114;77;21548;-80
2020/12/28 06:53:23;;;;;;;25.55;15.40;;;;;;;4.50;52.68;101237.35;1818021;77;21111;-77
2020/12/28 06:55:52;;;;;;;26.05;15.50;;;;;;;4.54;52.50;101215.83;1823302;76;21091;-77
2020/12/28 06:58:20;;;;;;;26.68;15.70;;;;;;;4.61;52.50;101219.39;1821472;77;21100;-78
2020/12/28 07:00:48;;;;;;;24.87;14.20;;;;;;;4.64;52.29;101224.50;1819182;77;21619;-78
2020/12/28 07:03:17;;;;;;;17.82;11.38;;;;;;;4.59;52.15;101223.48;1768435;77;21163;-79
2020/12/28 07:05:45;;;;;;;27.67;16.12;;;;;;;4.62;52.20;101231.70;1816575;78;21073;-79
2020/12/28 07:08:13;;;;;;;31.27;17.25;;;;;;;4.65;51.96;101238.14;1814731;77;20981;-79
2020/12/28 07:10:41;;;;;;;26.48;14.28;;;;;;;4.66;51.95;101219.45;1808586;77;21154;-79
2020/12/28 07:13:09;;;;;;;38.75;22.52;;;;;;;4.66;51.95;101218.61;1808534;77;21333;-78
2020/12/28 07:15:37;;;;;;;42.53;22.90;;;;;;;4.63;52.17;101219.65;1813528;77;21106;-78
2020/12/28 07:18:06;;;;;;;32.10;17.67;;;;;;;4.66;52.39;101220.78;1816682;77;21135;-78
2020/12/28 07:20:34;;;;;;;40.28;21.17;;;;;;;4.68;52.46;101214.03;1811016;78;21113;-77
2020/12/28 07:23:02;;;;;;;31.10;13.90;;;;;;;4.70;52.49;101204.19;1818713;77;21096;-77
2020/12/28 07:25:30;;;;;;;41.95;19.73;;;;;;;4.71;52.43;101205.40;1831371;77;21371;-78
2020/12/28 07:27:59;;;;;;;35.58;17.45;;;;;;;4.71;52.55;101201.42;1818422;77;21129;-77
2020/12/28 07:30:28;;;;;;;34.25;19.62;;;;;;;4.71;52.57;101201.42;1824601;77;21161;-76
2020/12/28 07:33:00;;;;;;;33.88;17.32;;;;;;;4.74;52.68;101203.03;1817674;77;21098;-78
2020/12/28 07:35:29;;;;;;;32.53;19.12;;;;;;;4.79;52.71;101199.11;1816781;77;21131;-80
2020/12/28 07:37:57;;;;;;;31.12;17.35;;;;;;;4.80;52.68;101197.30;1815224;78;21198;-78
2020/12/28 07:40:25;;;;;;;31.62;18.92;;;;;;;4.84;52.58;101196.15;1818257;77;21114;-78
2020/12/28 07:42:55;;;;;;;31.40;14.83;;;;;;;4.82;52.67;101191.44;1814802;77;21209;-80
2020/12/28 07:45:24;;;;;;;26.37;16.97;;;;;;;4.80;52.69;101178.72;1814527;78;21119;-80
2020/12/28 07:48:01;;;;;;;27.00;14.53;;;;;;;4.78;52.65;101185.95;1801241;77;21414;-79
2020/12/28 07:50:29;;;;;;;38.50;16.97;;;;;;;4.72;52.83;101192.50;1820089;77;21190;-81
2020/12/28 07:53:15;;;;;;;29.05;16.23;;;;;;;4.66;52.98;101184.95;1817133;77;21108;-78
2020/12/28 07:55:47;;;;;;;28.15;15.83;;;;;;;4.60;53.25;101168.61;1818181;77;21595;-79
2020/12/28 07:58:54;;;;;;;25.05;14.60;;;;;;;4.57;53.36;101182.44;1820952;77;20921;-78
2020/12/28 08:01:44;;;;;;;26.77;13.32;;;;;;;4.53;53.46;101184.91;1795751;77;21087;-79
2020/12/28 08:04:17;;;;;;;30.20;16.07;;;;;;;4.53;53.71;101187.56;1820470;77;21539;-79
2020/12/28 08:06:47;;;;;;;30.23;17.05;;;;;;;4.55;53.70;101170.25;1817361;77;21084;-80
2020/12/28 08:09:21;;;;;;;26.68;14.68;;;;;;;4.52;53.75;101165.13;1824796;77;21082;-79
2020/12/28 08:12:00;;;;;;;24.43;13.43;;;;;;;4.49;53.93;101162.19;1821176;78;21128;-79
2020/12/28 08:14:28;;;;;;;24.72;13.85;;;;;;;4.45;54.19;101168.68;1820672;77;21142;-78
2020/12/28 08:16:56;;;;;;;32.75;18.05;;;;;;;4.42;54.39;101172.85;1821168;77;22258;-79
2020/12/28 08:19:28;;;;;;;26.17;14.35;;;;;;;4.41;54.54;101159.22;1823873;77;21110;-82
2020/12/28 08:21:56;;;;;;;29.52;16.05;;;;;;;4.40;54.47;101156.17;1809620;78;21608;-76
2020/12/28 08:24:25;;;;;;;31.12;15.05;;;;;;;4.39;54.25;101162.44;1806054;77;21603;-77
2020/12/28 08:26:54;;;;;;;28.95;16.00;;;;;;;4.39;54.32;101145.19;1773146;77;21078;-78
2020/12/28 08:32:17;;;;;;;27.17;15.88;;;;;;;4.50;54.46;101141.84;1836905;75;23446;-79
2020/12/28 08:34:58;;;;;;;27.82;16.02;;;;;;;4.49;54.56;101138.31;1806393;77;21231;-79
2020/12/28 08:37:29;;;;;;;28.57;15.98;;;;;;;4.51;54.49;101131.13;1794771;77;21355;-78
2020/12/28 08:39:56;;;;;;;23.75;14.55;;;;;;;4.51;54.39;101125.81;1811970;77;21206;-78
2020/12/28 08:42:32;;;;;;;24.72;13.75;;;;;;;4.54;54.39;101126.07;1828296;77;21734;-82
2020/12/28 08:45:03;;;;;;;33.35;17.32;;;;;;;4.55;54.33;101139.73;1816470;77;21656;-81
2020/12/28 08:47:32;;;;;;;27.10;16.73;;;;;;;4.50;54.40;101149.33;1810133;77;21115;-79
2020/12/28 08:50:00;;;;;;;23.92;13.20;;;;;;;4.47;54.46;101122.15;1815193;77;21347;-79
2020/12/28 08:52:28;;;;;;;25.12;14.95;;;;;;;4.49;54.38;101137.47;1810917;77;21553;-76
2020/12/28 08:54:58;;;;;;;27.20;14.28;;;;;;;4.52;54.35;101137.27;1761036;78;21197;-79
2020/12/28 08:57:29;;;;;;;25.40;13.38;;;;;;;4.49;54.34;101113.11;1758218;79;21662;-78
2020/12/28 09:00:04;;;;;;;27.17;16.77;;;;;;;4.45;54.32;101131.55;1757986;79;21127;-79
2020/12/28 09:02:32;;;;;;;23.70;12.45;;;;;;;4.38;54.41;101104.20;1731517;79;22186;-79
2020/12/28 09:05:08;;;;;;;25.32;15.53;;;;;;;4.39;54.45;101106.73;1761179;79;21112;-79
2020/12/28 09:07:38;;;;;;;27.00;14.35;;;;;;;4.41;54.31;101108.83;1748850;79;21152;-79
2020/12/28 09:10:07;;;;;;;29.15;15.63;;;;;;;4.44;54.20;101107.27;1757180;79;21232;-78
2020/12/28 09:12:36;;;;;;;22.32;13.80;;;;;;;4.45;54.38;101099.72;1754348;79;21135;-78
2020/12/28 09:15:05;;;;;;;27.05;14.90;;;;;;;4.49;54.44;101095.88;1760895;79;21196;-78
2020/12/28 09:17:41;;;;;;;25.30;14.05;;;;;;;4.49;54.37;101079.95;1729899;79;21135;-78
2020/12/28 09:20:13;;;;;;;27.95;15.80;;;;;;;4.51;54.29;101115.20;1761020;79;21159;-79
2020/12/28 09:22:43;;;;;;;26.40;15.65;;;;;;;4.51;54.29;101071.91;1730412;79;21125;-78
2020/12/28 09:25:18;;;;;;;28.30;15.55;;;;;;;4.49;54.26;101083.09;1752254;79;21097;-81
2020/12/28 09:27:46;;;;;;;33.98;15.88;;;;;;;4.48;54.24;101088.03;1756602;79;21373;-79
2020/12/28 09:30:18;;;;;;;28.30;15.65;;;;;;;4.44;54.44;101110.41;1728008;79;21146;-81
2020/12/28 09:32:46;;;;;;;28.45;16.25;;;;;;;4.38;54.46;101093.59;1760495;79;21671;-80
2020/12/28 09:35:23;;;;;;;29.55;16.55;;;;;;;4.36;54.50;101074.26;1756706;79;21297;-81
2020/12/28 09:37:54;;;;;;;33.10;16.50;;;;;;;4.37;54.67;101075.50;1759963;79;21179;-80
2020/12/28 09:40:23;;;;;;;24.67;13.95;;;;;;;4.36;54.67;101059.67;1748409;79;21846;-76
2020/12/28 09:42:52;;;;;;;28.32;15.08;;;;;;;4.32;54.68;101064.36;1755957;79;21306;-79
2020/12/28 09:45:37;;;;;;;27.30;14.35;;;;;;;4.31;54.71;101046.72;1726946;81;21227;-83
2020/12/28 09:48:07;;;;;;;25.52;12.63;;;;;;;4.27;55.00;101047.88;1719552;79;21547;-79
2020/12/28 09:50:43;;;;;;;23.32;13.90;;;;;;;4.25;55.10;101037.38;1735133;80;21214;-82
2020/12/28 09:53:13;;;;;;;29.50;16.20;;;;;;;4.24;55.16;101047.63;1724660;79;22081;-80
2020/12/28 09:55:49;;;;;;;25.00;13.78;;;;;;;4.23;55.33;101043.28;1750404;79;21641;-86
2020/12/28 09:58:19;;;;;;;27.55;14.07;;;;;;;4.23;55.42;101040.63;1750692;79;21734;-80
2020/12/28 10:00:47;;;;;;;29.67;15.20;;;;;;;4.24;55.55;101040.15;1760275;79;21236;-80
2020/12/28 10:03:23;;;;;;;22.60;13.18;;;;;;;4.21;55.59;101018.66;1755425;79;21640;-81
2020/12/28 10:06:30;;;;;;;27.75;15.03;;;;;;;4.23;55.67;101014.11;1761435;79;21328;-82
2020/12/28 10:19:46;;;;;;;26.42;13.43;;;;;;;4.37;55.59;101007.02;1760132;80;22850;-79
2020/12/28 10:22:14;;;;;;;24.70;12.68;;;;;;;4.32;55.64;101011.31;1699421;81;21814;-79
2020/12/28 10:25:02;;;;;;;28.23;13.85;;;;;;;4.38;55.79;101007.39;1867271;75;22984;-80
2020/12/28 10:27:34;;;;;;;22.87;12.75;;;;;;;4.34;55.88;101010.72;1832061;76;21196;-80
2020/12/28 10:30:03;;;;;;;31.52;15.48;;;;;;;4.39;55.86;101013.91;1837032;77;21710;-80
2020/12/28 10:32:31;;;;;;;23.55;12.35;;;;;;;4.45;55.79;100992.73;1826061;76;21173;-80
2020/12/28 10:35:30;;;;;;;23.45;12.00;;;;;;;4.50;55.70;100990.16;1813327;77;21857;-80
2020/12/28 10:38:02;;;;;;;22.35;12.25;;;;;;;4.57;55.56;100983.45;1757157;79;22217;-80
2020/12/28 10:40:33;;;;;;;20.72;11.33;;;;;;;4.63;55.37;100981.33;1767856;79;21169;-80
2020/12/28 10:43:06;;;;;;;26.77;14.03;;;;;;;4.66;55.31;100980.64;1770525;79;22248;-79
2020/12/28 10:45:37;;;;;;;24.77;14.63;;;;;;;4.67;55.29;100986.31;1742177;79;21480;-78
2020/12/28 10:48:04;;;;;;;24.37;13.03;;;;;;;4.66;55.37;100975.33;1773130;79;21151;-79
2020/12/28 10:50:35;;;;;;;23.10;12.18;;;;;;;4.65;55.47;100972.80;1772910;79;21467;-78
2020/12/28 10:53:04;;;;;;;19.77;12.07;;;;;;;4.65;55.53;100960.38;1790393;77;21109;-79
2020/12/28 10:55:32;;;;;;;21.02;11.22;;;;;;;4.65;55.60;100961.70;1769771;79;21158;-79
2020/12/28 10:58:05;;;;;;;20.92;11.57;;;;;;;4.64;55.65;100971.95;1775595;79;21161;-81
2020/12/28 11:00:33;;;;;;;18.20;10.08;;;;;;;4.65;55.70;100967.49;1775660;79;21156;-79
2020/12/28 11:03:05;;;;;;;19.70;11.40;;;;;;;4.66;55.84;100967.86;1774970;79;21214;-79
2020/12/28 11:08:18;;;;;;;23.32;12.20;;;;;;;4.64;55.81;100937.46;1865204;75;23404;-82
2020/12/28 11:10:45;;;;;;;24.12;12.88;;;;;;;4.63;55.92;100942.86;1833195;77;21160;-78
2020/12/28 11:13:13;;;;;;;24.67;13.25;;;;;;;4.65;55.94;100933.84;1832415;76;21459;-78
2020/12/28 11:15:41;;;;;;;21.95;10.53;;;;;;;4.65;55.98;100928.53;1833500;77;21180;-77
2020/12/28 11:18:14;;;;;;;20.08;11.57;;;;;;;4.65;55.97;100921.06;1812172;77;21188;-78
2020/12/28 11:21:15;;;;;;;21.95;12.30;;;;;;;4.67;55.92;100913.83;1834458;77;21503;-78
2020/12/28 11:24:33;;;;;;;25.13;14.93;;;;;;;4.74;55.89;100903.16;1856098;75;28308;-78
2020/12/28 11:27:01;;;;;;;20.92;11.83;;;;;;;4.79;55.77;100909.82;1833603;77;21196;-78
2020/12/28 11:29:42;;;;;;;21.62;11.78;;;;;;;4.87;55.57;100917.24;1834121;76;21359;-81
2020/12/28 11:32:10;;;;;;;21.42;12.28;;;;;;;4.89;55.50;100898.55;1833048;76;21188;-81
2020/12/28 11:34:41;;;;;;;26.00;12.50;;;;;;;4.89;55.52;100883.46;1839121;76;21168;-80
2020/12/28 11:37:09;;;;;;;23.27;12.75;;;;;;;4.90;55.51;100897.09;1840472;77;21180;-81
2020/12/28 11:39:39;;;;;;;21.82;11.38;;;;;;;4.88;55.52;100901.68;1786453;78;21579;-82
2020/12/28 11:42:15;;;;;;;29.70;14.00;;;;;;;4.88;55.40;100900.35;1714468;82;21207;-84
2020/12/28 11:55:17;;;;;;;23.92;12.28;;;;;;;4.79;55.74;100894.37;1734717;81;23488;-79
2020/12/28 11:57:48;;;;;;;22.95;11.85;;;;;;;4.72;55.76;100884.67;1713219;83;21242;-79
2020/12/28 12:00:19;;;;;;;23.20;11.30;;;;;;;4.67;55.77;100880.66;1715021;83;22673;-79
2020/12/28 12:02:58;;;;;;;23.60;12.28;;;;;;;4.74;55.82;100864.20;1806550;77;22721;-79
2020/12/28 12:08:10;;;;;;;19.90;9.73;;;;;;;4.80;55.71;100879.66;1795673;79;23449;-80
2020/12/28 12:10:40;;;;;;;23.47;11.45;;;;;;;4.79;55.71;100869.17;1786194;78;21181;-78
2020/12/28 12:13:08;;;;;;;23.12;11.45;;;;;;;4.78;55.60;100870.13;1760367;79;21437;-77